This is the latest recevied weather packets stored in our database for station/object KF7SOJ. If no packets are shown the sender has not sent any weather packets the latest 10 day(s).
| Time | Temp. | Humidity | Pressure | Rain* | Wind** | Luminosity | Snow |
|---|---|---|---|---|---|---|---|
| 1777362206 | -1.67° C | 88% | 932.2 hPa | 0 mm | - | 0 W/m² | - |
| 1777361903 | -1.67° C | 87% | 932.3 hPa | 0 mm | - | 0 W/m² | - |
| 1777361600 | -1.67° C | 86% | 932.2 hPa | 0 mm | - | 0 W/m² | - |
| 1777361298 | -1.67° C | 86% | 932.4 hPa | 0 mm | - | 0 W/m² | - |
| 1777360994 | -1.67° C | 86% | 932.3 hPa | 0 mm | - | 0 W/m² | - |
| 1777360693 | -1.67° C | 85% | 932.4 hPa | 0 mm | - | 0 W/m² | - |
| 1777360389 | -1.11° C | 84% | 932.3 hPa | 0 mm | - | 0 W/m² | - |
| 1777360086 | -1.11° C | 85% | 932.4 hPa | 0 mm | - | 0 W/m² | - |
| 1777359782 | -1.11° C | 85% | 932.4 hPa | 0 mm | - | 0 W/m² | - |
| 1777359480 | -0.56° C | 84% | 932.3 hPa | 0 mm | - | 0 W/m² | - |
| 1777359176 | -0.56° C | 84% | 932.2 hPa | 0 mm | - | 0 W/m² | - |
| 1777358874 | -1.11° C | 85% | 932.3 hPa | 0 mm | - | 0 W/m² | - |
| 1777358571 | -1.11° C | 81% | 932.5 hPa | 0 mm | - | 0 W/m² | - |
| 1777358269 | -0.56° C | 82% | 932.3 hPa | 0 mm | - | 0 W/m² | - |
| 1777357967 | -0.56° C | 83% | 932.3 hPa | 0 mm | - | 0 W/m² | - |
| 1777357664 | 0° C | 80% | 932.2 hPa | 0 mm | - | 0 W/m² | - |
| 1777357360 | 0° C | 82% | 932.2 hPa | 0 mm | - | 0 W/m² | - |
| 1777357057 | -0.56° C | 82% | 932.3 hPa | 0 mm | - | 0 W/m² | - |
| 1777356754 | -0.56° C | 83% | 932.4 hPa | 0 mm | - | 0 W/m² | - |
| 1777356452 | -0.56° C | 83% | 932.3 hPa | 0 mm | - | 0 W/m² | - |
| 1777356148 | -0.56° C | 82% | 932.4 hPa | 0 mm | - | 0 W/m² | - |
| 1777355846 | 0° C | 81% | 932.4 hPa | 0 mm | - | 0 W/m² | - |
| 1777355542 | 0° C | 81% | 932.4 hPa | 0 mm | - | 0 W/m² | - |
| 1777355239 | 0° C | 83% | 932.2 hPa | 0 mm | - | 0 W/m² | - |
| 1777354936 | -0.56° C | 83% | 932.4 hPa | 0 mm | - | 0 W/m² | - |
* Rain latest hour (hover to see other rain measurements)
** Current wind speed in m/s (hover to see current wind gust speed)